Česky Dansk Deutsch English Español Suomi Français Magyar Italiano Nederlands norsk Polski Português svenska Türkçe

 

Het Weer

Saint Gallen-Altenrhein (Zwitzerland)

02:20, 13 augustus 2016 (GMT)

NWNNE
WE
SWSSE
Home            
Saint Gallen-Altenrhein Hohenems-Dornbirn Friedrichshafen Konstanz Memmingen Zurich-Kloten Laupheim Messstetten Donaueschingen / Villingen Resia Pass Altenstadt Landsberg Lechfeld Stuttgart-Echterdingen Innsbruck-Flughafen Oberpfaffenhofen Augsburg Fuerstenfeldbruck Bale-Mulhouse Schwaz Heliport Lahr, CAN-AFB Grenchen Bern / Belp

Om een weerknop op uw website of weblog te plaatsen, copieer onderstaande code en plak die in uw pagina. In het eerste vakje staat HTML-code, in het tweede vakje UBB-code.


Add to Google

Details

Wind speed:1 bf, 2 kn, 1.0 m/s, 2.3 miles/h, 3.7 km/h
Wind direction:Variable
Visibility:Greater than 10000 m, 10 km, 32800 ft, 6.2 miles
Clouds:CAVOC
Temperature:12°C, 54°F
Dew-point:11°C, 52°F
Atmospheric pressure:1026 hPa, 769.6 mmHg, 30.30 inHg, 1.013 atm
Relative humidity:93.6 %
METAR:LSZR 130220Z AUTO VRB02KT CAVOK 12/11 Q1026

Snelkoppelingen

Actuele weersinformatie van de hele wereld. Voeg locaties toe met het plus (+) symbool. Deze snelkoppelingen kunnen worden toegevoegd aan Google.

Lid van de Technetium groep

website free tracking
StatCounter NetStat W3C Validator

19-05-2022 04:22:52
astro.technetium.be money.technetium.be phote.technetium.be tafeltennistafel.technetium.be www.ligfiets.net